Search for airport 
image banner adimage banner adimage banner ad
image banner ad

4PA1 - Sauers-Haven

Located in New Berlin, United States

ICAO - 4PA1, IATA -

Data provided by Airmate  

General information

Coordinates: N40°53'2" W76°58'48"
Elevation is 590 feet MSL.
Magnetic variation is -11° East
View others Airports in Pennsylvania

Operational data

Special qualification required
Current time UTC:
Current local time:
Weather at : KSEG - Penn Valley ( 12 km )
METAR: KSEG 182253Z AUTO 20004KT 10SM CLR 25/08 A3024 RMK AO2 SLP240 T02500078
View NOTAMs / SUP AIP / TFR affecting this airport [VIEW]
Communications frequencies: [VIEW]

Runways:

RWY identifierQFULength (ft)Width (ft)SurfaceLDA (ft)
091200100GRASS
271200100GRASS

Airport contact information

Address: New Berlin United States

Satellite view of 4PA1